sensor_id;sensor_type;location;lat;lon;timestamp;P1;durP1;ratioP1;P2;durP2;ratioP2
46815;SDS011;32787;53.316;8.670;2023-07-29T00:01:11;10.63;;;6.63;;
46815;SDS011;32787;53.316;8.670;2023-07-29T00:03:37;11.60;;;7.18;;
46815;SDS011;32787;53.316;8.670;2023-07-29T00:06:02;10.23;;;6.78;;
46815;SDS011;32787;53.316;8.670;2023-07-29T00:08:28;12.98;;;7.38;;
46815;SDS011;32787;53.316;8.670;2023-07-29T00:10:54;12.90;;;7.45;;
46815;SDS011;32787;53.316;8.670;2023-07-29T00:13:19;10.77;;;7.28;;
46815;SDS011;32787;53.316;8.670;2023-07-29T00:15:45;11.10;;;7.43;;
46815;SDS011;32787;53.316;8.670;2023-07-29T00:18:10;13.13;;;7.55;;
46815;SDS011;32787;53.316;8.670;2023-07-29T00:20:36;12.27;;;7.45;;
46815;SDS011;32787;53.316;8.670;2023-07-29T00:23:02;12.38;;;8.02;;
46815;SDS011;32787;53.316;8.670;2023-07-29T00:25:27;13.88;;;8.05;;
46815;SDS011;32787;53.316;8.670;2023-07-29T00:27:56;12.52;;;7.95;;
46815;SDS011;32787;53.316;8.670;2023-07-29T00:30:21;12.70;;;8.52;;
46815;SDS011;32787;53.316;8.670;2023-07-29T00:32:47;13.40;;;8.45;;
46815;SDS011;32787;53.316;8.670;2023-07-29T00:35:13;14.68;;;8.15;;
46815;SDS011;32787;53.316;8.670;2023-07-29T00:37:38;12.65;;;7.68;;
46815;SDS011;32787;53.316;8.670;2023-07-29T00:40:09;15.80;;;9.55;;
46815;SDS011;32787;53.316;8.670;2023-07-29T00:42:41;13.18;;;7.65;;
46815;SDS011;32787;53.316;8.670;2023-07-29T00:45:08;14.27;;;8.13;;
46815;SDS011;32787;53.316;8.670;2023-07-29T00:47:34;17.33;;;9.00;;
46815;SDS011;32787;53.316;8.670;2023-07-29T00:49:59;12.00;;;8.07;;
46815;SDS011;32787;53.316;8.670;2023-07-29T00:52:25;12.60;;;8.05;;
46815;SDS011;32787;53.316;8.670;2023-07-29T00:54:51;15.25;;;8.20;;
46815;SDS011;32787;53.316;8.670;2023-07-29T00:57:17;14.27;;;8.27;;
46815;SDS011;32787;53.316;8.670;2023-07-29T00:59:44;11.32;;;7.60;;
46815;SDS011;32787;53.316;8.670;2023-07-29T01:02:09;12.13;;;7.60;;
46815;SDS011;32787;53.316;8.670;2023-07-29T01:04:35;13.15;;;8.45;;
46815;SDS011;32787;53.316;8.670;2023-07-29T01:12:35;21.42;;;8.80;;
46815;SDS011;32787;53.316;8.670;2023-07-29T01:15:17;18.10;;;10.15;;
46815;SDS011;32787;53.316;8.670;2023-07-29T01:18:05;15.98;;;9.25;;
46815;SDS011;32787;53.316;8.670;2023-07-29T01:20:33;16.45;;;8.30;;
46815;SDS011;32787;53.316;8.670;2023-07-29T01:23:03;16.23;;;8.60;;
46815;SDS011;32787;53.316;8.670;2023-07-29T01:25:29;13.82;;;8.55;;
46815;SDS011;32787;53.316;8.670;2023-07-29T01:27:55;17.83;;;10.18;;
46815;SDS011;32787;53.316;8.670;2023-07-29T01:30:22;26.00;;;11.80;;
46815;SDS011;32787;53.316;8.670;2023-07-29T01:33:09;26.05;;;12.55;;
46815;SDS011;32787;53.316;8.670;2023-07-29T01:36:03;17.17;;;8.90;;
46815;SDS011;32787;53.316;8.670;2023-07-29T01:41:03;16.35;;;9.52;;
46815;SDS011;32787;53.316;8.670;2023-07-29T01:43:32;19.73;;;10.32;;
46815;SDS011;32787;53.316;8.670;2023-07-29T01:45:58;25.98;;;13.80;;
46815;SDS011;32787;53.316;8.670;2023-07-29T01:48:25;28.85;;;15.27;;
46815;SDS011;32787;53.316;8.670;2023-07-29T01:50:52;25.55;;;14.45;;
46815;SDS011;32787;53.316;8.670;2023-07-29T01:53:18;24.65;;;13.50;;
46815;SDS011;32787;53.316;8.670;2023-07-29T01:55:43;34.75;;;16.45;;
46815;SDS011;32787;53.316;8.670;2023-07-29T01:58:10;31.65;;;17.55;;
46815;SDS011;32787;53.316;8.670;2023-07-29T02:00:35;34.67;;;18.65;;
46815;SDS011;32787;53.316;8.670;2023-07-29T02:03:01;40.55;;;18.88;;
46815;SDS011;32787;53.316;8.670;2023-07-29T02:05:27;35.60;;;18.17;;
46815;SDS011;32787;53.316;8.670;2023-07-29T02:07:52;45.15;;;19.30;;
46815;SDS011;32787;53.316;8.670;2023-07-29T02:10:18;49.42;;;19.13;;
46815;SDS011;32787;53.316;8.670;2023-07-29T02:12:44;35.65;;;19.58;;
46815;SDS011;32787;53.316;8.670;2023-07-29T02:15:09;53.75;;;20.77;;
46815;SDS011;32787;53.316;8.670;2023-07-29T02:17:35;32.05;;;20.73;;
46815;SDS011;32787;53.316;8.670;2023-07-29T02:20:01;31.42;;;19.73;;
46815;SDS011;32787;53.316;8.670;2023-07-29T02:22:28;30.95;;;20.15;;
46815;SDS011;32787;53.316;8.670;2023-07-29T02:24:54;27.27;;;18.88;;
46815;SDS011;32787;53.316;8.670;2023-07-29T02:27:20;26.60;;;18.63;;
46815;SDS011;32787;53.316;8.670;2023-07-29T02:29:45;28.20;;;18.67;;
46815;SDS011;32787;53.316;8.670;2023-07-29T02:32:11;29.27;;;19.50;;
46815;SDS011;32787;53.316;8.670;2023-07-29T02:34:36;28.73;;;19.65;;
46815;SDS011;32787;53.316;8.670;2023-07-29T02:37:02;29.73;;;19.63;;
46815;SDS011;32787;53.316;8.670;2023-07-29T02:39:28;29.23;;;19.70;;
46815;SDS011;32787;53.316;8.670;2023-07-29T02:41:53;26.85;;;18.35;;
46815;SDS011;32787;53.316;8.670;2023-07-29T02:44:20;27.00;;;17.50;;
46815;SDS011;32787;53.316;8.670;2023-07-29T02:46:46;25.08;;;17.75;;
46815;SDS011;32787;53.316;8.670;2023-07-29T02:49:12;28.48;;;18.33;;
46815;SDS011;32787;53.316;8.670;2023-07-29T02:51:37;27.83;;;18.63;;
46815;SDS011;32787;53.316;8.670;2023-07-29T02:54:03;26.73;;;17.55;;
46815;SDS011;32787;53.316;8.670;2023-07-29T02:56:28;30.50;;;18.42;;
46815;SDS011;32787;53.316;8.670;2023-07-29T02:58:55;25.10;;;16.73;;
46815;SDS011;32787;53.316;8.670;2023-07-29T03:01:22;29.50;;;18.63;;
46815;SDS011;32787;53.316;8.670;2023-07-29T03:03:50;28.38;;;18.98;;
46815;SDS011;32787;53.316;8.670;2023-07-29T03:06:15;40.95;;;20.13;;
46815;SDS011;32787;53.316;8.670;2023-07-29T03:08:41;34.90;;;19.85;;
46815;SDS011;32787;53.316;8.670;2023-07-29T03:11:08;27.10;;;17.58;;
46815;SDS011;32787;53.316;8.670;2023-07-29T03:13:35;30.27;;;18.90;;
46815;SDS011;32787;53.316;8.670;2023-07-29T03:16:10;27.45;;;18.42;;
46815;SDS011;32787;53.316;8.670;2023-07-29T03:18:38;25.58;;;17.73;;
46815;SDS011;32787;53.316;8.670;2023-07-29T03:21:04;28.35;;;18.98;;
46815;SDS011;32787;53.316;8.670;2023-07-29T03:23:30;36.10;;;18.98;;
46815;SDS011;32787;53.316;8.670;2023-07-29T03:25:58;72.97;;;19.40;;
46815;SDS011;32787;53.316;8.670;2023-07-29T03:28:26;24.63;;;17.48;;
46815;SDS011;32787;53.316;8.670;2023-07-29T03:30:58;23.73;;;17.23;;
46815;SDS011;32787;53.316;8.670;2023-07-29T03:33:24;24.48;;;17.42;;
46815;SDS011;32787;53.316;8.670;2023-07-29T03:35:51;26.15;;;17.20;;
46815;SDS011;32787;53.316;8.670;2023-07-29T03:38:19;22.88;;;15.50;;
46815;SDS011;32787;53.316;8.670;2023-07-29T03:40:45;25.02;;;17.60;;
46815;SDS011;32787;53.316;8.670;2023-07-29T03:43:10;23.02;;;15.20;;
46815;SDS011;32787;53.316;8.670;2023-07-29T03:45:36;25.35;;;15.48;;
46815;SDS011;32787;53.316;8.670;2023-07-29T03:48:02;26.25;;;18.20;;
46815;SDS011;32787;53.316;8.670;2023-07-29T03:50:28;24.02;;;16.88;;
46815;SDS011;32787;53.316;8.670;2023-07-29T03:52:55;29.15;;;18.88;;
46815;SDS011;32787;53.316;8.670;2023-07-29T03:55:21;25.70;;;16.40;;
46815;SDS011;32787;53.316;8.670;2023-07-29T03:57:47;23.83;;;17.35;;
46815;SDS011;32787;53.316;8.670;2023-07-29T04:00:13;24.05;;;17.08;;
46815;SDS011;32787;53.316;8.670;2023-07-29T04:02:38;25.40;;;17.48;;
46815;SDS011;32787;53.316;8.670;2023-07-29T04:05:04;24.27;;;17.65;;
46815;SDS011;32787;53.316;8.670;2023-07-29T04:07:33;27.90;;;19.55;;
46815;SDS011;32787;53.316;8.670;2023-07-29T04:09:59;24.75;;;17.70;;
46815;SDS011;32787;53.316;8.670;2023-07-29T04:12:25;26.70;;;18.27;;
46815;SDS011;32787;53.316;8.670;2023-07-29T04:14:51;26.75;;;19.40;;
46815;SDS011;32787;53.316;8.670;2023-07-29T04:17:17;26.40;;;17.70;;
46815;SDS011;32787;53.316;8.670;2023-07-29T04:19:43;21.60;;;16.42;;
46815;SDS011;32787;53.316;8.670;2023-07-29T04:22:08;24.27;;;17.73;;
46815;SDS011;32787;53.316;8.670;2023-07-29T04:24:34;24.33;;;17.63;;
46815;SDS011;32787;53.316;8.670;2023-07-29T04:26:59;24.55;;;16.95;;
46815;SDS011;32787;53.316;8.670;2023-07-29T04:29:25;23.65;;;15.52;;
46815;SDS011;32787;53.316;8.670;2023-07-29T04:31:51;24.15;;;17.38;;
46815;SDS011;32787;53.316;8.670;2023-07-29T04:34:17;26.95;;;18.60;;
46815;SDS011;32787;53.316;8.670;2023-07-29T04:36:43;23.17;;;16.95;;
46815;SDS011;32787;53.316;8.670;2023-07-29T04:39:08;23.63;;;16.95;;
46815;SDS011;32787;53.316;8.670;2023-07-29T04:41:34;26.02;;;17.60;;
46815;SDS011;32787;53.316;8.670;2023-07-29T04:44:00;22.70;;;15.90;;
46815;SDS011;32787;53.316;8.670;2023-07-29T04:46:25;24.92;;;17.95;;
46815;SDS011;32787;53.316;8.670;2023-07-29T04:48:51;28.23;;;19.30;;
46815;SDS011;32787;53.316;8.670;2023-07-29T04:51:16;25.50;;;17.33;;
46815;SDS011;32787;53.316;8.670;2023-07-29T04:53:42;24.15;;;15.75;;
46815;SDS011;32787;53.316;8.670;2023-07-29T04:56:08;26.80;;;18.80;;
46815;SDS011;32787;53.316;8.670;2023-07-29T04:58:33;23.00;;;17.02;;
46815;SDS011;32787;53.316;8.670;2023-07-29T05:01:01;23.10;;;16.10;;
46815;SDS011;32787;53.316;8.670;2023-07-29T05:03:27;24.42;;;16.15;;
46815;SDS011;32787;53.316;8.670;2023-07-29T05:05:53;25.75;;;17.73;;
46815;SDS011;32787;53.316;8.670;2023-07-29T05:08:20;27.10;;;18.88;;
46815;SDS011;32787;53.316;8.670;2023-07-29T05:10:50;26.13;;;18.88;;
46815;SDS011;32787;53.316;8.670;2023-07-29T05:13:16;25.38;;;18.10;;
46815;SDS011;32787;53.316;8.670;2023-07-29T05:15:42;28.70;;;19.15;;
46815;SDS011;32787;53.316;8.670;2023-07-29T05:18:08;24.10;;;17.65;;
46815;SDS011;32787;53.316;8.670;2023-07-29T05:20:33;25.77;;;19.00;;
46815;SDS011;32787;53.316;8.670;2023-07-29T05:22:59;27.38;;;19.42;;
46815;SDS011;32787;53.316;8.670;2023-07-29T05:25:25;26.88;;;18.27;;
46815;SDS011;32787;53.316;8.670;2023-07-29T05:27:51;26.73;;;18.02;;
46815;SDS011;32787;53.316;8.670;2023-07-29T05:30:17;25.63;;;17.42;;
46815;SDS011;32787;53.316;8.670;2023-07-29T05:32:43;26.63;;;18.92;;
46815;SDS011;32787;53.316;8.670;2023-07-29T05:35:08;28.05;;;19.77;;
46815;SDS011;32787;53.316;8.670;2023-07-29T05:37:37;26.38;;;18.98;;
46815;SDS011;32787;53.316;8.670;2023-07-29T05:40:04;27.23;;;19.05;;
46815;SDS011;32787;53.316;8.670;2023-07-29T05:42:32;26.77;;;19.05;;
46815;SDS011;32787;53.316;8.670;2023-07-29T05:44:58;23.20;;;17.40;;
46815;SDS011;32787;53.316;8.670;2023-07-29T05:47:23;29.15;;;19.17;;
46815;SDS011;32787;53.316;8.670;2023-07-29T05:49:49;27.35;;;19.17;;
46815;SDS011;32787;53.316;8.670;2023-07-29T05:52:15;32.63;;;20.50;;
46815;SDS011;32787;53.316;8.670;2023-07-29T05:54:40;28.38;;;20.48;;
46815;SDS011;32787;53.316;8.670;2023-07-29T05:57:08;23.30;;;17.35;;
46815;SDS011;32787;53.316;8.670;2023-07-29T05:59:34;31.08;;;20.10;;
46815;SDS011;32787;53.316;8.670;2023-07-29T06:02:00;28.42;;;19.88;;
46815;SDS011;32787;53.316;8.670;2023-07-29T06:04:26;31.40;;;20.75;;
46815;SDS011;32787;53.316;8.670;2023-07-29T06:06:52;29.70;;;20.20;;
46815;SDS011;32787;53.316;8.670;2023-07-29T06:09:17;29.40;;;21.25;;
46815;SDS011;32787;53.316;8.670;2023-07-29T06:11:43;36.42;;;21.42;;
46815;SDS011;32787;53.316;8.670;2023-07-29T06:14:08;33.63;;;22.77;;
46815;SDS011;32787;53.316;8.670;2023-07-29T06:16:34;35.88;;;24.20;;
46815;SDS011;32787;53.316;8.670;2023-07-29T06:19:00;36.13;;;23.52;;
46815;SDS011;32787;53.316;8.670;2023-07-29T06:21:25;31.92;;;23.13;;
46815;SDS011;32787;53.316;8.670;2023-07-29T06:23:51;34.83;;;23.58;;
46815;SDS011;32787;53.316;8.670;2023-07-29T06:26:16;34.13;;;24.23;;
46815;SDS011;32787;53.316;8.670;2023-07-29T06:28:42;38.00;;;24.67;;
46815;SDS011;32787;53.316;8.670;2023-07-29T06:31:08;34.08;;;23.25;;
46815;SDS011;32787;53.316;8.670;2023-07-29T06:33:33;31.65;;;22.58;;
46815;SDS011;32787;53.316;8.670;2023-07-29T06:35:59;30.98;;;20.90;;
46815;SDS011;32787;53.316;8.670;2023-07-29T06:38:24;31.33;;;19.45;;
46815;SDS011;32787;53.316;8.670;2023-07-29T06:40:50;29.63;;;20.08;;
46815;SDS011;32787;53.316;8.670;2023-07-29T06:43:16;27.50;;;19.08;;
46815;SDS011;32787;53.316;8.670;2023-07-29T06:45:42;32.67;;;20.40;;
46815;SDS011;32787;53.316;8.670;2023-07-29T06:48:08;28.40;;;18.67;;
46815;SDS011;32787;53.316;8.670;2023-07-29T06:50:33;22.95;;;16.85;;
46815;SDS011;32787;53.316;8.670;2023-07-29T06:52:59;24.42;;;16.15;;
46815;SDS011;32787;53.316;8.670;2023-07-29T06:55:24;24.35;;;17.35;;
46815;SDS011;32787;53.316;8.670;2023-07-29T06:57:50;24.67;;;15.43;;
46815;SDS011;32787;53.316;8.670;2023-07-29T07:00:16;23.58;;;15.23;;
46815;SDS011;32787;53.316;8.670;2023-07-29T07:02:41;23.55;;;15.20;;
46815;SDS011;32787;53.316;8.670;2023-07-29T07:05:07;26.35;;;16.77;;
46815;SDS011;32787;53.316;8.670;2023-07-29T07:07:33;25.98;;;15.43;;
46815;SDS011;32787;53.316;8.670;2023-07-29T07:09:58;24.08;;;14.98;;
46815;SDS011;32787;53.316;8.670;2023-07-29T07:12:24;23.45;;;14.65;;
46815;SDS011;32787;53.316;8.670;2023-07-29T07:14:50;20.88;;;14.90;;
46815;SDS011;32787;53.316;8.670;2023-07-29T07:17:15;22.67;;;14.60;;
46815;SDS011;32787;53.316;8.670;2023-07-29T07:19:41;21.10;;;13.80;;
46815;SDS011;32787;53.316;8.670;2023-07-29T07:22:07;19.98;;;13.55;;
46815;SDS011;32787;53.316;8.670;2023-07-29T07:24:32;23.02;;;13.82;;
46815;SDS011;32787;53.316;8.670;2023-07-29T07:26:58;20.17;;;13.20;;
46815;SDS011;32787;53.316;8.670;2023-07-29T07:29:23;18.08;;;12.15;;
46815;SDS011;32787;53.316;8.670;2023-07-29T07:31:50;18.65;;;12.05;;
46815;SDS011;32787;53.316;8.670;2023-07-29T07:34:18;15.07;;;11.23;;
46815;SDS011;32787;53.316;8.670;2023-07-29T07:36:44;15.75;;;10.25;;
46815;SDS011;32787;53.316;8.670;2023-07-29T07:39:09;14.45;;;9.32;;
46815;SDS011;32787;53.316;8.670;2023-07-29T07:41:35;15.35;;;9.15;;
46815;SDS011;32787;53.316;8.670;2023-07-29T07:44:01;13.07;;;8.98;;
46815;SDS011;32787;53.316;8.670;2023-07-29T07:46:27;14.85;;;9.45;;
46815;SDS011;32787;53.316;8.670;2023-07-29T07:48:53;13.43;;;8.88;;
46815;SDS011;32787;53.316;8.670;2023-07-29T07:51:19;13.98;;;8.02;;
46815;SDS011;32787;53.316;8.670;2023-07-29T07:53:44;12.82;;;7.40;;
46815;SDS011;32787;53.316;8.670;2023-07-29T07:56:10;12.18;;;7.30;;
46815;SDS011;32787;53.316;8.670;2023-07-29T07:58:36;12.68;;;7.75;;
46815;SDS011;32787;53.316;8.670;2023-07-29T08:01:05;11.93;;;7.03;;
46815;SDS011;32787;53.316;8.670;2023-07-29T08:03:31;16.02;;;7.45;;
46815;SDS011;32787;53.316;8.670;2023-07-29T08:05:58;14.43;;;7.63;;
46815;SDS011;32787;53.316;8.670;2023-07-29T08:08:23;12.18;;;6.90;;
46815;SDS011;32787;53.316;8.670;2023-07-29T08:10:50;10.02;;;6.60;;
46815;SDS011;32787;53.316;8.670;2023-07-29T08:13:17;13.98;;;6.53;;
46815;SDS011;32787;53.316;8.670;2023-07-29T08:15:45;10.13;;;6.68;;
46815;SDS011;32787;53.316;8.670;2023-07-29T08:18:12;12.98;;;6.40;;
46815;SDS011;32787;53.316;8.670;2023-07-29T08:20:37;10.30;;;6.07;;
46815;SDS011;32787;53.316;8.670;2023-07-29T08:23:03;10.63;;;5.53;;
46815;SDS011;32787;53.316;8.670;2023-07-29T08:25:29;11.73;;;6.07;;
46815;SDS011;32787;53.316;8.670;2023-07-29T08:27:54;11.65;;;6.45;;
46815;SDS011;32787;53.316;8.670;2023-07-29T08:30:20;10.45;;;6.22;;
46815;SDS011;32787;53.316;8.670;2023-07-29T08:32:46;11.40;;;5.18;;
46815;SDS011;32787;53.316;8.670;2023-07-29T08:35:12;11.65;;;5.43;;
46815;SDS011;32787;53.316;8.670;2023-07-29T08:37:37;10.15;;;5.55;;
46815;SDS011;32787;53.316;8.670;2023-07-29T08:40:03;9.57;;;5.35;;
46815;SDS011;32787;53.316;8.670;2023-07-29T08:42:31;13.85;;;5.30;;
46815;SDS011;32787;53.316;8.670;2023-07-29T08:44:59;9.88;;;5.25;;
46815;SDS011;32787;53.316;8.670;2023-07-29T08:47:31;11.52;;;5.22;;
46815;SDS011;32787;53.316;8.670;2023-07-29T08:49:57;8.38;;;4.20;;
46815;SDS011;32787;53.316;8.670;2023-07-29T08:52:24;9.25;;;4.55;;
46815;SDS011;32787;53.316;8.670;2023-07-29T08:54:51;8.98;;;4.22;;
46815;SDS011;32787;53.316;8.670;2023-07-29T08:57:19;9.35;;;5.10;;
46815;SDS011;32787;53.316;8.670;2023-07-29T08:59:45;8.60;;;4.30;;
46815;SDS011;32787;53.316;8.670;2023-07-29T09:02:11;10.30;;;3.95;;
46815;SDS011;32787;53.316;8.670;2023-07-29T09:04:37;8.07;;;4.10;;
46815;SDS011;32787;53.316;8.670;2023-07-29T09:07:02;11.25;;;4.22;;
46815;SDS011;32787;53.316;8.670;2023-07-29T09:09:30;9.65;;;3.88;;
46815;SDS011;32787;53.316;8.670;2023-07-29T09:11:55;7.57;;;3.40;;
46815;SDS011;32787;53.316;8.670;2023-07-29T09:14:23;6.70;;;3.75;;
46815;SDS011;32787;53.316;8.670;2023-07-29T09:16:49;8.32;;;3.90;;
46815;SDS011;32787;53.316;8.670;2023-07-29T09:19:15;7.15;;;3.90;;
46815;SDS011;32787;53.316;8.670;2023-07-29T09:21:40;6.18;;;3.17;;
46815;SDS011;32787;53.316;8.670;2023-07-29T09:24:07;7.45;;;3.33;;
46815;SDS011;32787;53.316;8.670;2023-07-29T09:26:33;7.97;;;3.58;;
46815;SDS011;32787;53.316;8.670;2023-07-29T09:29:00;5.95;;;3.10;;
46815;SDS011;32787;53.316;8.670;2023-07-29T09:31:26;6.53;;;2.95;;
46815;SDS011;32787;53.316;8.670;2023-07-29T09:34:00;6.70;;;3.10;;
46815;SDS011;32787;53.316;8.670;2023-07-29T09:36:27;7.22;;;3.33;;
46815;SDS011;32787;53.316;8.670;2023-07-29T09:38:55;8.20;;;3.92;;
46815;SDS011;32787;53.316;8.670;2023-07-29T09:41:25;6.32;;;3.53;;
46815;SDS011;32787;53.316;8.670;2023-07-29T09:43:55;7.55;;;4.20;;
46815;SDS011;32787;53.316;8.670;2023-07-29T09:46:31;8.25;;;3.88;;
46815;SDS011;32787;53.316;8.670;2023-07-29T09:49:04;8.82;;;4.50;;
46815;SDS011;32787;53.316;8.670;2023-07-29T09:51:31;7.53;;;4.25;;
46815;SDS011;32787;53.316;8.670;2023-07-29T09:53:57;11.73;;;4.40;;
46815;SDS011;32787;53.316;8.670;2023-07-29T09:56:27;7.15;;;3.88;;
46815;SDS011;32787;53.316;8.670;2023-07-29T09:58:53;7.35;;;4.38;;
46815;SDS011;32787;53.316;8.670;2023-07-29T10:01:21;7.20;;;3.78;;
46815;SDS011;32787;53.316;8.670;2023-07-29T10:03:46;6.60;;;4.18;;
46815;SDS011;32787;53.316;8.670;2023-07-29T10:06:15;7.63;;;4.20;;
46815;SDS011;32787;53.316;8.670;2023-07-29T10:08:42;7.93;;;3.58;;
46815;SDS011;32787;53.316;8.670;2023-07-29T10:11:08;6.43;;;3.50;;
46815;SDS011;32787;53.316;8.670;2023-07-29T10:13:35;7.68;;;3.63;;
46815;SDS011;32787;53.316;8.670;2023-07-29T10:16:02;8.75;;;4.10;;
46815;SDS011;32787;53.316;8.670;2023-07-29T10:18:29;6.18;;;3.35;;
46815;SDS011;32787;53.316;8.670;2023-07-29T10:20:56;7.97;;;3.80;;
46815;SDS011;32787;53.316;8.670;2023-07-29T10:23:23;9.93;;;3.42;;
46815;SDS011;32787;53.316;8.670;2023-07-29T10:25:55;6.55;;;2.90;;
46815;SDS011;32787;53.316;8.670;2023-07-29T10:28:29;5.72;;;3.33;;
46815;SDS011;32787;53.316;8.670;2023-07-29T10:30:56;7.50;;;3.08;;
46815;SDS011;32787;53.316;8.670;2023-07-29T10:33:23;7.07;;;3.75;;
46815;SDS011;32787;53.316;8.670;2023-07-29T10:35:49;10.25;;;4.35;;
46815;SDS011;32787;53.316;8.670;2023-07-29T10:38:15;6.95;;;3.63;;
46815;SDS011;32787;53.316;8.670;2023-07-29T10:40:46;5.78;;;3.15;;
46815;SDS011;32787;53.316;8.670;2023-07-29T10:43:14;7.10;;;2.95;;
46815;SDS011;32787;53.316;8.670;2023-07-29T10:45:48;5.72;;;2.75;;
46815;SDS011;32787;53.316;8.670;2023-07-29T10:48:39;6.60;;;2.53;;
46815;SDS011;32787;53.316;8.670;2023-07-29T10:51:21;6.30;;;2.25;;
46815;SDS011;32787;53.316;8.670;2023-07-29T10:53:51;4.40;;;2.10;;
46815;SDS011;32787;53.316;8.670;2023-07-29T10:56:29;4.97;;;2.17;;
46815;SDS011;32787;53.316;8.670;2023-07-29T10:58:57;7.60;;;2.50;;
46815;SDS011;32787;53.316;8.670;2023-07-29T11:01:53;4.85;;;2.30;;
46815;SDS011;32787;53.316;8.670;2023-07-29T11:04:31;4.60;;;2.20;;
46815;SDS011;32787;53.316;8.670;2023-07-29T11:09:51;5.28;;;2.00;;
46815;SDS011;32787;53.316;8.670;2023-07-29T11:17:37;4.65;;;2.15;;
46815;SDS011;32787;53.316;8.670;2023-07-29T11:20:05;4.78;;;2.10;;
46815;SDS011;32787;53.316;8.670;2023-07-29T11:22:34;5.00;;;1.80;;
46815;SDS011;32787;53.316;8.670;2023-07-29T11:25:01;5.22;;;2.55;;
46815;SDS011;32787;53.316;8.670;2023-07-29T11:27:27;4.68;;;2.03;;
46815;SDS011;32787;53.316;8.670;2023-07-29T11:29:57;5.78;;;2.08;;
46815;SDS011;32787;53.316;8.670;2023-07-29T11:32:23;5.07;;;1.90;;
46815;SDS011;32787;53.316;8.670;2023-07-29T11:34:50;4.35;;;2.08;;
46815;SDS011;32787;53.316;8.670;2023-07-29T11:37:16;6.70;;;2.10;;
46815;SDS011;32787;53.316;8.670;2023-07-29T11:39:42;5.45;;;2.30;;
46815;SDS011;32787;53.316;8.670;2023-07-29T11:42:11;5.57;;;1.80;;
46815;SDS011;32787;53.316;8.670;2023-07-29T11:44:37;6.40;;;2.30;;
46815;SDS011;32787;53.316;8.670;2023-07-29T11:47:07;5.93;;;2.47;;
46815;SDS011;32787;53.316;8.670;2023-07-29T11:51:59;6.57;;;2.40;;
46815;SDS011;32787;53.316;8.670;2023-07-29T11:54:25;6.78;;;2.50;;
46815;SDS011;32787;53.316;8.670;2023-07-29T11:56:51;6.75;;;2.20;;
46815;SDS011;32787;53.316;8.670;2023-07-29T11:59:17;6.20;;;2.00;;
46815;SDS011;32787;53.316;8.670;2023-07-29T12:01:43;6.13;;;2.30;;
46815;SDS011;32787;53.316;8.670;2023-07-29T12:04:08;6.20;;;2.17;;
46815;SDS011;32787;53.316;8.670;2023-07-29T12:06:34;5.13;;;2.25;;
46815;SDS011;32787;53.316;8.670;2023-07-29T12:09:01;6.95;;;2.20;;
46815;SDS011;32787;53.316;8.670;2023-07-29T12:11:26;5.78;;;2.17;;
46815;SDS011;32787;53.316;8.670;2023-07-29T12:13:55;5.68;;;2.30;;
46815;SDS011;32787;53.316;8.670;2023-07-29T12:16:21;5.57;;;2.10;;
46815;SDS011;32787;53.316;8.670;2023-07-29T12:18:46;5.35;;;1.98;;
46815;SDS011;32787;53.316;8.670;2023-07-29T12:21:14;5.70;;;2.35;;
46815;SDS011;32787;53.316;8.670;2023-07-29T12:23:40;7.45;;;2.80;;
46815;SDS011;32787;53.316;8.670;2023-07-29T12:26:06;6.32;;;2.20;;
46815;SDS011;32787;53.316;8.670;2023-07-29T12:28:31;8.88;;;2.45;;
46815;SDS011;32787;53.316;8.670;2023-07-29T12:30:57;7.18;;;2.45;;
46815;SDS011;32787;53.316;8.670;2023-07-29T12:33:32;6.35;;;2.50;;
46815;SDS011;32787;53.316;8.670;2023-07-29T12:35:59;6.38;;;2.63;;
46815;SDS011;32787;53.316;8.670;2023-07-29T12:38:26;5.15;;;2.30;;
46815;SDS011;32787;53.316;8.670;2023-07-29T12:40:52;6.65;;;2.00;;
46815;SDS011;32787;53.316;8.670;2023-07-29T12:43:17;6.78;;;2.42;;
46815;SDS011;32787;53.316;8.670;2023-07-29T12:45:43;5.32;;;2.28;;
46815;SDS011;32787;53.316;8.670;2023-07-29T12:48:09;5.22;;;2.15;;
46815;SDS011;32787;53.316;8.670;2023-07-29T12:50:35;5.45;;;2.08;;
46815;SDS011;32787;53.316;8.670;2023-07-29T12:53:01;6.38;;;1.95;;
46815;SDS011;32787;53.316;8.670;2023-07-29T12:55:27;3.92;;;1.77;;
46815;SDS011;32787;53.316;8.670;2023-07-29T12:57:53;5.75;;;1.95;;
46815;SDS011;32787;53.316;8.670;2023-07-29T13:00:18;6.78;;;1.98;;
46815;SDS011;32787;53.316;8.670;2023-07-29T13:02:44;4.70;;;2.00;;
46815;SDS011;32787;53.316;8.670;2023-07-29T13:05:10;4.43;;;1.67;;
46815;SDS011;32787;53.316;8.670;2023-07-29T13:07:40;5.15;;;1.90;;
46815;SDS011;32787;53.316;8.670;2023-07-29T13:10:06;4.53;;;1.65;;
46815;SDS011;32787;53.316;8.670;2023-07-29T13:12:32;9.02;;;2.10;;
46815;SDS011;32787;53.316;8.670;2023-07-29T13:14:58;6.55;;;2.00;;
46815;SDS011;32787;53.316;8.670;2023-07-29T13:17:24;4.95;;;1.88;;
46815;SDS011;32787;53.316;8.670;2023-07-29T13:19:50;5.93;;;2.15;;
46815;SDS011;32787;53.316;8.670;2023-07-29T13:22:16;4.93;;;1.88;;
46815;SDS011;32787;53.316;8.670;2023-07-29T13:24:41;4.38;;;1.73;;
46815;SDS011;32787;53.316;8.670;2023-07-29T13:27:07;5.68;;;1.42;;
46815;SDS011;32787;53.316;8.670;2023-07-29T13:29:33;6.65;;;1.48;;
46815;SDS011;32787;53.316;8.670;2023-07-29T13:31:58;3.60;;;1.50;;
46815;SDS011;32787;53.316;8.670;2023-07-29T13:34:24;4.82;;;1.65;;
46815;SDS011;32787;53.316;8.670;2023-07-29T13:36:49;6.30;;;1.85;;
46815;SDS011;32787;53.316;8.670;2023-07-29T13:39:15;5.63;;;1.80;;
46815;SDS011;32787;53.316;8.670;2023-07-29T13:41:41;4.82;;;1.95;;
46815;SDS011;32787;53.316;8.670;2023-07-29T13:44:07;4.20;;;1.80;;
46815;SDS011;32787;53.316;8.670;2023-07-29T13:46:32;4.50;;;1.65;;
46815;SDS011;32787;53.316;8.670;2023-07-29T13:48:58;6.57;;;1.85;;
46815;SDS011;32787;53.316;8.670;2023-07-29T13:51:23;5.80;;;1.80;;
46815;SDS011;32787;53.316;8.670;2023-07-29T13:53:49;4.40;;;1.80;;
46815;SDS011;32787;53.316;8.670;2023-07-29T13:56:14;3.60;;;1.60;;
46815;SDS011;32787;53.316;8.670;2023-07-29T13:58:40;4.32;;;1.52;;
46815;SDS011;32787;53.316;8.670;2023-07-29T14:01:06;6.20;;;1.90;;
46815;SDS011;32787;53.316;8.670;2023-07-29T14:03:31;3.42;;;1.58;;
46815;SDS011;32787;53.316;8.670;2023-07-29T14:05:57;5.28;;;1.50;;
46815;SDS011;32787;53.316;8.670;2023-07-29T14:08:22;5.82;;;2.25;;
46815;SDS011;32787;53.316;8.670;2023-07-29T14:10:49;3.28;;;1.50;;
46815;SDS011;32787;53.316;8.670;2023-07-29T14:13:15;4.72;;;1.70;;
46815;SDS011;32787;53.316;8.670;2023-07-29T14:15:40;5.47;;;2.60;;
46815;SDS011;32787;53.316;8.670;2023-07-29T14:18:06;3.40;;;1.55;;
46815;SDS011;32787;53.316;8.670;2023-07-29T14:20:32;8.68;;;1.88;;
46815;SDS011;32787;53.316;8.670;2023-07-29T14:22:58;4.95;;;1.50;;
46815;SDS011;32787;53.316;8.670;2023-07-29T14:25:23;6.18;;;1.52;;
46815;SDS011;32787;53.316;8.670;2023-07-29T14:27:50;6.72;;;1.60;;
46815;SDS011;32787;53.316;8.670;2023-07-29T14:30:15;7.05;;;2.05;;
46815;SDS011;32787;53.316;8.670;2023-07-29T14:32:41;11.77;;;2.25;;
46815;SDS011;32787;53.316;8.670;2023-07-29T14:35:07;6.75;;;2.00;;
46815;SDS011;32787;53.316;8.670;2023-07-29T14:37:33;5.68;;;1.90;;
46815;SDS011;32787;53.316;8.670;2023-07-29T14:39:59;5.28;;;1.63;;
46815;SDS011;32787;53.316;8.670;2023-07-29T14:42:26;4.00;;;1.95;;
46815;SDS011;32787;53.316;8.670;2023-07-29T14:44:52;6.70;;;1.60;;
46815;SDS011;32787;53.316;8.670;2023-07-29T14:47:17;5.20;;;1.70;;
46815;SDS011;32787;53.316;8.670;2023-07-29T14:49:44;4.95;;;1.60;;